sensor_id;sensor_type;location;lat;lon;timestamp;temperature;humidity
4699;DHT22;33708;49.466;11.176;2023-01-08T00:02:01;2.10;99.90
4699;DHT22;33708;49.466;11.176;2023-01-08T00:04:26;2.10;99.90
4699;DHT22;33708;49.466;11.176;2023-01-08T00:06:52;2.10;99.90
4699;DHT22;33708;49.466;11.176;2023-01-08T00:09:17;2.00;99.90
4699;DHT22;33708;49.466;11.176;2023-01-08T00:11:43;2.10;99.90
4699;DHT22;33708;49.466;11.176;2023-01-08T00:14:09;2.00;99.90
4699;DHT22;33708;49.466;11.176;2023-01-08T00:16:35;2.00;99.90
4699;DHT22;33708;49.466;11.176;2023-01-08T00:19:01;2.00;99.90
4699;DHT22;33708;49.466;11.176;2023-01-08T00:21:28;1.90;99.90
4699;DHT22;33708;49.466;11.176;2023-01-08T00:23:53;1.90;99.90
4699;DHT22;33708;49.466;11.176;2023-01-08T00:26:19;1.90;99.90
4699;DHT22;33708;49.466;11.176;2023-01-08T00:28:45;1.90;99.90
4699;DHT22;33708;49.466;11.176;2023-01-08T00:31:12;1.90;99.90
4699;DHT22;33708;49.466;11.176;2023-01-08T00:33:38;1.90;99.90
4699;DHT22;33708;49.466;11.176;2023-01-08T00:36:12;1.80;99.90
4699;DHT22;33708;49.466;11.176;2023-01-08T00:38:38;1.90;99.90
4699;DHT22;33708;49.466;11.176;2023-01-08T00:41:04;1.80;99.90
4699;DHT22;33708;49.466;11.176;2023-01-08T00:43:30;1.80;99.90
4699;DHT22;33708;49.466;11.176;2023-01-08T00:45:55;1.80;99.90
4699;DHT22;33708;49.466;11.176;2023-01-08T00:48:21;1.80;99.90
4699;DHT22;33708;49.466;11.176;2023-01-08T00:50:48;1.80;99.90
4699;DHT22;33708;49.466;11.176;2023-01-08T00:53:14;1.80;99.90
4699;DHT22;33708;49.466;11.176;2023-01-08T00:55:40;1.80;99.90
4699;DHT22;33708;49.466;11.176;2023-01-08T00:58:05;1.90;99.90
4699;DHT22;33708;49.466;11.176;2023-01-08T01:00:31;2.00;99.90
4699;DHT22;33708;49.466;11.176;2023-01-08T01:02:57;2.00;99.90
4699;DHT22;33708;49.466;11.176;2023-01-08T01:05:22;1.90;99.90
4699;DHT22;33708;49.466;11.176;2023-01-08T01:07:48;1.90;99.90
4699;DHT22;33708;49.466;11.176;2023-01-08T01:10:14;1.80;99.90
4699;DHT22;33708;49.466;11.176;2023-01-08T01:12:41;1.80;99.90
4699;DHT22;33708;49.466;11.176;2023-01-08T01:15:09;1.80;99.90
4699;DHT22;33708;49.466;11.176;2023-01-08T01:17:38;1.70;99.90
4699;DHT22;33708;49.466;11.176;2023-01-08T01:20:05;1.70;99.90
4699;DHT22;33708;49.466;11.176;2023-01-08T01:22:31;1.60;99.90
4699;DHT22;33708;49.466;11.176;2023-01-08T01:24:56;1.60;99.90
4699;DHT22;33708;49.466;11.176;2023-01-08T01:27:24;1.70;99.90
4699;DHT22;33708;49.466;11.176;2023-01-08T01:29:50;1.70;99.90
4699;DHT22;33708;49.466;11.176;2023-01-08T01:32:16;1.70;99.90
4699;DHT22;33708;49.466;11.176;2023-01-08T01:34:42;1.70;99.90
4699;DHT22;33708;49.466;11.176;2023-01-08T01:37:11;1.70;99.90
4699;DHT22;33708;49.466;11.176;2023-01-08T01:39:37;1.60;99.90
4699;DHT22;33708;49.466;11.176;2023-01-08T01:42:03;1.70;99.90
4699;DHT22;33708;49.466;11.176;2023-01-08T01:46:57;1.60;99.90
4699;DHT22;33708;49.466;11.176;2023-01-08T01:49:23;1.60;99.90
4699;DHT22;33708;49.466;11.176;2023-01-08T01:51:51;1.60;99.90
4699;DHT22;33708;49.466;11.176;2023-01-08T01:54:18;1.60;99.90
4699;DHT22;33708;49.466;11.176;2023-01-08T01:56:44;1.60;99.90
4699;DHT22;33708;49.466;11.176;2023-01-08T01:59:11;1.50;99.90
4699;DHT22;33708;49.466;11.176;2023-01-08T02:01:37;1.50;99.90
4699;DHT22;33708;49.466;11.176;2023-01-08T02:04:05;1.50;99.90
4699;DHT22;33708;49.466;11.176;2023-01-08T02:06:43;1.50;99.90
4699;DHT22;33708;49.466;11.176;2023-01-08T02:15:22;1.50;99.90
4699;DHT22;33708;49.466;11.176;2023-01-08T02:17:56;1.50;99.90
4699;DHT22;33708;49.466;11.176;2023-01-08T02:20:29;1.50;99.90
4699;DHT22;33708;49.466;11.176;2023-01-08T02:23:13;1.50;99.90
4699;DHT22;33708;49.466;11.176;2023-01-08T02:31:12;1.40;99.90
4699;DHT22;33708;49.466;11.176;2023-01-08T02:33:39;1.30;99.90
4699;DHT22;33708;49.466;11.176;2023-01-08T02:36:21;1.30;99.90
4699;DHT22;33708;49.466;11.176;2023-01-08T02:42:11;1.40;99.90
4699;DHT22;33708;49.466;11.176;2023-01-08T02:47:35;1.40;99.90
4699;DHT22;33708;49.466;11.176;2023-01-08T02:53:27;1.50;99.90
4699;DHT22;33708;49.466;11.176;2023-01-08T02:55:28;1.50;99.90
4699;DHT22;33708;49.466;11.176;2023-01-08T02:57:55;1.50;99.90
4699;DHT22;33708;49.466;11.176;2023-01-08T03:00:22;1.40;99.90
4699;DHT22;33708;49.466;11.176;2023-01-08T03:02:49;1.40;99.90
4699;DHT22;33708;49.466;11.176;2023-01-08T03:05:22;1.40;99.90
4699;DHT22;33708;49.466;11.176;2023-01-08T03:07:49;1.40;99.90
4699;DHT22;33708;49.466;11.176;2023-01-08T03:10:15;1.40;99.90
4699;DHT22;33708;49.466;11.176;2023-01-08T03:13:03;1.40;99.90
4699;DHT22;33708;49.466;11.176;2023-01-08T03:15:36;1.40;99.90
4699;DHT22;33708;49.466;11.176;2023-01-08T03:18:08;1.40;99.90
4699;DHT22;33708;49.466;11.176;2023-01-08T03:20:37;1.50;99.90
4699;DHT22;33708;49.466;11.176;2023-01-08T03:23:05;1.60;99.90
4699;DHT22;33708;49.466;11.176;2023-01-08T03:25:34;1.80;99.90
4699;DHT22;33708;49.466;11.176;2023-01-08T03:28:04;1.80;99.90
4699;DHT22;33708;49.466;11.176;2023-01-08T03:30:32;2.00;99.90
4699;DHT22;33708;49.466;11.176;2023-01-08T03:33:00;2.00;99.90
4699;DHT22;33708;49.466;11.176;2023-01-08T03:35:27;2.10;99.90
4699;DHT22;33708;49.466;11.176;2023-01-08T03:38:04;2.10;99.90
4699;DHT22;33708;49.466;11.176;2023-01-08T03:40:38;2.00;99.90
4699;DHT22;33708;49.466;11.176;2023-01-08T03:43:04;2.00;99.90
4699;DHT22;33708;49.466;11.176;2023-01-08T03:45:31;1.90;99.90
4699;DHT22;33708;49.466;11.176;2023-01-08T03:47:57;1.90;99.90
4699;DHT22;33708;49.466;11.176;2023-01-08T03:50:26;1.90;99.90
4699;DHT22;33708;49.466;11.176;2023-01-08T03:52:53;2.00;99.90
4699;DHT22;33708;49.466;11.176;2023-01-08T03:55:19;2.00;99.90
4699;DHT22;33708;49.466;11.176;2023-01-08T03:57:45;1.90;99.90
4699;DHT22;33708;49.466;11.176;2023-01-08T04:00:11;1.90;99.90
4699;DHT22;33708;49.466;11.176;2023-01-08T04:02:36;1.90;99.90
4699;DHT22;33708;49.466;11.176;2023-01-08T04:05:02;1.90;99.90
4699;DHT22;33708;49.466;11.176;2023-01-08T04:07:28;1.90;99.90
4699;DHT22;33708;49.466;11.176;2023-01-08T04:09:53;1.90;99.90
4699;DHT22;33708;49.466;11.176;2023-01-08T04:12:19;1.90;99.90
4699;DHT22;33708;49.466;11.176;2023-01-08T04:14:44;1.90;99.90
4699;DHT22;33708;49.466;11.176;2023-01-08T04:17:11;1.90;99.90
4699;DHT22;33708;49.466;11.176;2023-01-08T04:19:37;2.00;99.90
4699;DHT22;33708;49.466;11.176;2023-01-08T04:22:02;2.10;99.90
4699;DHT22;33708;49.466;11.176;2023-01-08T04:24:28;2.20;99.90
4699;DHT22;33708;49.466;11.176;2023-01-08T04:26:53;2.20;99.90
4699;DHT22;33708;49.466;11.176;2023-01-08T04:29:19;2.20;99.90
4699;DHT22;33708;49.466;11.176;2023-01-08T04:31:45;2.30;99.90
4699;DHT22;33708;49.466;11.176;2023-01-08T04:34:10;2.30;99.90
4699;DHT22;33708;49.466;11.176;2023-01-08T04:36:36;2.30;99.90
4699;DHT22;33708;49.466;11.176;2023-01-08T04:39:02;2.30;99.90
4699;DHT22;33708;49.466;11.176;2023-01-08T04:41:27;2.30;99.90
4699;DHT22;33708;49.466;11.176;2023-01-08T04:43:53;2.30;99.90
4699;DHT22;33708;49.466;11.176;2023-01-08T04:46:19;2.30;99.90
4699;DHT22;33708;49.466;11.176;2023-01-08T04:48:44;2.20;99.90
4699;DHT22;33708;49.466;11.176;2023-01-08T04:51:10;2.10;99.90
4699;DHT22;33708;49.466;11.176;2023-01-08T04:53:37;2.20;99.90
4699;DHT22;33708;49.466;11.176;2023-01-08T04:56:06;2.20;99.90
4699;DHT22;33708;49.466;11.176;2023-01-08T04:58:33;2.20;99.90
4699;DHT22;33708;49.466;11.176;2023-01-08T05:00:59;2.20;99.90
4699;DHT22;33708;49.466;11.176;2023-01-08T05:03:25;2.10;99.90
4699;DHT22;33708;49.466;11.176;2023-01-08T05:05:50;2.10;99.90
4699;DHT22;33708;49.466;11.176;2023-01-08T05:08:16;2.10;99.90
4699;DHT22;33708;49.466;11.176;2023-01-08T05:10:42;2.10;99.90
4699;DHT22;33708;49.466;11.176;2023-01-08T05:13:07;2.10;99.90
4699;DHT22;33708;49.466;11.176;2023-01-08T05:15:33;2.20;99.90
4699;DHT22;33708;49.466;11.176;2023-01-08T05:18:03;2.10;99.90
4699;DHT22;33708;49.466;11.176;2023-01-08T05:20:29;2.10;99.90
4699;DHT22;33708;49.466;11.176;2023-01-08T05:22:55;2.10;99.90
4699;DHT22;33708;49.466;11.176;2023-01-08T05:25:22;2.10;99.90
4699;DHT22;33708;49.466;11.176;2023-01-08T05:27:48;2.10;99.90
4699;DHT22;33708;49.466;11.176;2023-01-08T05:30:14;2.10;99.90
4699;DHT22;33708;49.466;11.176;2023-01-08T05:32:39;2.20;99.90
4699;DHT22;33708;49.466;11.176;2023-01-08T05:35:05;2.20;99.90
4699;DHT22;33708;49.466;11.176;2023-01-08T05:37:34;2.20;99.90
4699;DHT22;33708;49.466;11.176;2023-01-08T05:40:00;2.10;99.90
4699;DHT22;33708;49.466;11.176;2023-01-08T05:42:25;2.10;99.90
4699;DHT22;33708;49.466;11.176;2023-01-08T05:44:51;2.20;99.90
4699;DHT22;33708;49.466;11.176;2023-01-08T05:47:16;2.30;99.90
4699;DHT22;33708;49.466;11.176;2023-01-08T05:49:42;2.30;99.90
4699;DHT22;33708;49.466;11.176;2023-01-08T05:52:08;2.40;99.90
4699;DHT22;33708;49.466;11.176;2023-01-08T05:54:33;2.30;99.90
4699;DHT22;33708;49.466;11.176;2023-01-08T05:56:59;2.30;99.90
4699;DHT22;33708;49.466;11.176;2023-01-08T05:59:24;2.40;99.90
4699;DHT22;33708;49.466;11.176;2023-01-08T06:01:50;2.40;99.90
4699;DHT22;33708;49.466;11.176;2023-01-08T06:04:15;2.50;99.90
4699;DHT22;33708;49.466;11.176;2023-01-08T06:06:41;2.50;99.90
4699;DHT22;33708;49.466;11.176;2023-01-08T06:09:06;2.60;99.90
4699;DHT22;33708;49.466;11.176;2023-01-08T06:11:32;2.60;99.90
4699;DHT22;33708;49.466;11.176;2023-01-08T06:13:58;2.60;99.90
4699;DHT22;33708;49.466;11.176;2023-01-08T06:16:23;2.60;99.90
4699;DHT22;33708;49.466;11.176;2023-01-08T06:18:49;2.80;99.90
4699;DHT22;33708;49.466;11.176;2023-01-08T06:21:14;2.60;99.90
4699;DHT22;33708;49.466;11.176;2023-01-08T06:23:40;2.70;99.90
4699;DHT22;33708;49.466;11.176;2023-01-08T06:26:06;2.80;99.90
4699;DHT22;33708;49.466;11.176;2023-01-08T06:28:32;2.90;99.90
4699;DHT22;33708;49.466;11.176;2023-01-08T06:31:02;2.90;99.90
4699;DHT22;33708;49.466;11.176;2023-01-08T06:33:28;3.00;99.90
4699;DHT22;33708;49.466;11.176;2023-01-08T06:35:54;3.00;99.90
4699;DHT22;33708;49.466;11.176;2023-01-08T06:38:20;3.10;99.90
4699;DHT22;33708;49.466;11.176;2023-01-08T06:40:46;2.80;99.90
4699;DHT22;33708;49.466;11.176;2023-01-08T06:43:12;2.90;99.90
4699;DHT22;33708;49.466;11.176;2023-01-08T06:45:38;3.00;99.90
4699;DHT22;33708;49.466;11.176;2023-01-08T06:48:05;3.10;99.90
4699;DHT22;33708;49.466;11.176;2023-01-08T06:50:32;3.30;99.90
4699;DHT22;33708;49.466;11.176;2023-01-08T06:52:58;3.40;99.90
4699;DHT22;33708;49.466;11.176;2023-01-08T06:55:24;3.50;99.90
4699;DHT22;33708;49.466;11.176;2023-01-08T06:57:54;3.50;99.90
4699;DHT22;33708;49.466;11.176;2023-01-08T07:00:20;3.40;99.90
4699;DHT22;33708;49.466;11.176;2023-01-08T07:02:49;3.50;99.90
4699;DHT22;33708;49.466;11.176;2023-01-08T07:05:14;3.40;99.90
4699;DHT22;33708;49.466;11.176;2023-01-08T07:07:40;3.40;99.90
4699;DHT22;33708;49.466;11.176;2023-01-08T07:10:05;3.50;99.90
4699;DHT22;33708;49.466;11.176;2023-01-08T07:12:31;3.60;99.90
4699;DHT22;33708;49.466;11.176;2023-01-08T07:14:57;3.80;99.90
4699;DHT22;33708;49.466;11.176;2023-01-08T07:17:22;4.00;99.90
4699;DHT22;33708;49.466;11.176;2023-01-08T07:19:48;4.20;99.90
4699;DHT22;33708;49.466;11.176;2023-01-08T07:22:13;4.10;99.90
4699;DHT22;33708;49.466;11.176;2023-01-08T07:24:40;4.10;99.90
4699;DHT22;33708;49.466;11.176;2023-01-08T07:27:05;4.00;99.90
4699;DHT22;33708;49.466;11.176;2023-01-08T07:29:31;4.00;99.90
4699;DHT22;33708;49.466;11.176;2023-01-08T07:31:56;4.10;99.90
4699;DHT22;33708;49.466;11.176;2023-01-08T07:34:22;4.10;99.90
4699;DHT22;33708;49.466;11.176;2023-01-08T07:36:47;4.10;99.90
4699;DHT22;33708;49.466;11.176;2023-01-08T07:39:13;4.00;99.90
4699;DHT22;33708;49.466;11.176;2023-01-08T07:41:38;4.10;99.90
4699;DHT22;33708;49.466;11.176;2023-01-08T07:44:04;4.10;99.90
4699;DHT22;33708;49.466;11.176;2023-01-08T07:46:30;4.10;99.90
4699;DHT22;33708;49.466;11.176;2023-01-08T07:48:55;4.10;99.90
4699;DHT22;33708;49.466;11.176;2023-01-08T07:51:21;4.10;99.90
4699;DHT22;33708;49.466;11.176;2023-01-08T07:53:47;4.20;99.90
4699;DHT22;33708;49.466;11.176;2023-01-08T07:56:13;4.40;99.90
4699;DHT22;33708;49.466;11.176;2023-01-08T07:58:38;4.40;99.90
4699;DHT22;33708;49.466;11.176;2023-01-08T08:01:08;4.40;99.90
4699;DHT22;33708;49.466;11.176;2023-01-08T08:03:34;4.40;99.90
4699;DHT22;33708;49.466;11.176;2023-01-08T08:06:03;4.40;99.90
4699;DHT22;33708;49.466;11.176;2023-01-08T08:08:28;4.50;99.90
4699;DHT22;33708;49.466;11.176;2023-01-08T08:10:54;4.60;99.90
4699;DHT22;33708;49.466;11.176;2023-01-08T08:13:19;4.60;99.90
4699;DHT22;33708;49.466;11.176;2023-01-08T08:15:45;4.80;99.90
4699;DHT22;33708;49.466;11.176;2023-01-08T08:18:11;5.00;99.90
4699;DHT22;33708;49.466;11.176;2023-01-08T08:20:37;5.20;99.90
4699;DHT22;33708;49.466;11.176;2023-01-08T08:23:11;5.40;99.90
4699;DHT22;33708;49.466;11.176;2023-01-08T08:25:38;5.50;99.90
4699;DHT22;33708;49.466;11.176;2023-01-08T08:28:04;5.70;99.90
4699;DHT22;33708;49.466;11.176;2023-01-08T08:30:32;5.70;99.90
4699;DHT22;33708;49.466;11.176;2023-01-08T08:33:03;5.80;99.90
4699;DHT22;33708;49.466;11.176;2023-01-08T08:35:30;5.90;99.90
4699;DHT22;33708;49.466;11.176;2023-01-08T08:37:56;5.80;99.90
4699;DHT22;33708;49.466;11.176;2023-01-08T08:40:22;6.10;99.90
4699;DHT22;33708;49.466;11.176;2023-01-08T08:42:47;6.10;99.90
4699;DHT22;33708;49.466;11.176;2023-01-08T08:45:13;6.00;99.90
4699;DHT22;33708;49.466;11.176;2023-01-08T08:47:39;5.90;99.90
4699;DHT22;33708;49.466;11.176;2023-01-08T08:50:05;5.90;99.90
4699;DHT22;33708;49.466;11.176;2023-01-08T08:52:32;6.10;99.90
4699;DHT22;33708;49.466;11.176;2023-01-08T08:54:58;6.10;99.90
4699;DHT22;33708;49.466;11.176;2023-01-08T08:57:25;6.20;99.90
4699;DHT22;33708;49.466;11.176;2023-01-08T08:59:51;6.10;99.90
4699;DHT22;33708;49.466;11.176;2023-01-08T09:02:17;6.20;99.90
4699;DHT22;33708;49.466;11.176;2023-01-08T09:04:42;6.30;99.90
4699;DHT22;33708;49.466;11.176;2023-01-08T09:07:08;6.00;99.90
4699;DHT22;33708;49.466;11.176;2023-01-08T09:09:34;6.20;99.90
4699;DHT22;33708;49.466;11.176;2023-01-08T09:11:59;6.20;99.90
4699;DHT22;33708;49.466;11.176;2023-01-08T09:14:25;6.30;99.90
4699;DHT22;33708;49.466;11.176;2023-01-08T09:16:51;6.40;99.90
4699;DHT22;33708;49.466;11.176;2023-01-08T09:19:16;6.40;99.90
4699;DHT22;33708;49.466;11.176;2023-01-08T09:21:42;6.50;99.90
4699;DHT22;33708;49.466;11.176;2023-01-08T09:24:08;6.60;99.90
4699;DHT22;33708;49.466;11.176;2023-01-08T09:26:34;6.60;99.90
4699;DHT22;33708;49.466;11.176;2023-01-08T09:28:59;6.50;99.90
4699;DHT22;33708;49.466;11.176;2023-01-08T09:31:26;6.90;99.90
4699;DHT22;33708;49.466;11.176;2023-01-08T09:33:51;6.80;99.90
4699;DHT22;33708;49.466;11.176;2023-01-08T09:36:18;6.80;99.90
4699;DHT22;33708;49.466;11.176;2023-01-08T09:38:44;6.60;99.90
4699;DHT22;33708;49.466;11.176;2023-01-08T09:43:48;7.40;99.90
4699;DHT22;33708;49.466;11.176;2023-01-08T09:46:15;7.20;99.90
4699;DHT22;33708;49.466;11.176;2023-01-08T09:48:43;7.40;99.90
4699;DHT22;33708;49.466;11.176;2023-01-08T09:51:16;7.60;99.90
4699;DHT22;33708;49.466;11.176;2023-01-08T09:53:43;7.90;99.90
4699;DHT22;33708;49.466;11.176;2023-01-08T09:56:16;8.10;99.90
4699;DHT22;33708;49.466;11.176;2023-01-08T09:58:48;8.30;99.90
4699;DHT22;33708;49.466;11.176;2023-01-08T10:01:20;8.10;99.90
4699;DHT22;33708;49.466;11.176;2023-01-08T10:03:50;8.00;99.90
4699;DHT22;33708;49.466;11.176;2023-01-08T10:06:17;8.10;99.90
4699;DHT22;33708;49.466;11.176;2023-01-08T10:08:43;8.20;99.90
4699;DHT22;33708;49.466;11.176;2023-01-08T10:11:09;8.20;99.90
4699;DHT22;33708;49.466;11.176;2023-01-08T10:13:38;8.10;99.90
4699;DHT22;33708;49.466;11.176;2023-01-08T10:16:09;8.20;99.90
4699;DHT22;33708;49.466;11.176;2023-01-08T10:18:37;8.70;99.90
4699;DHT22;33708;49.466;11.176;2023-01-08T10:21:05;8.30;99.90
4699;DHT22;33708;49.466;11.176;2023-01-08T10:23:30;8.40;99.90
4699;DHT22;33708;49.466;11.176;2023-01-08T10:26:00;8.30;99.90
4699;DHT22;33708;49.466;11.176;2023-01-08T10:28:28;8.40;99.90
4699;DHT22;33708;49.466;11.176;2023-01-08T10:31:07;8.40;99.90
4699;DHT22;33708;49.466;11.176;2023-01-08T10:33:39;8.40;99.90
4699;DHT22;33708;49.466;11.176;2023-01-08T10:36:08;8.60;99.90
4699;DHT22;33708;49.466;11.176;2023-01-08T10:38:41;8.50;99.90
4699;DHT22;33708;49.466;11.176;2023-01-08T10:41:13;8.30;99.90
4699;DHT22;33708;49.466;11.176;2023-01-08T10:44:03;8.20;99.90
4699;DHT22;33708;49.466;11.176;2023-01-08T10:46:41;8.30;99.90
4699;DHT22;33708;49.466;11.176;2023-01-08T10:51:52;8.20;99.90
4699;DHT22;33708;49.466;11.176;2023-01-08T10:54:37;8.00;99.90
4699;DHT22;33708;49.466;11.176;2023-01-08T10:57:26;8.10;99.90
4699;DHT22;33708;49.466;11.176;2023-01-08T10:59:52;8.10;99.90
4699;DHT22;33708;49.466;11.176;2023-01-08T11:04:49;8.10;99.90
4699;DHT22;33708;49.466;11.176;2023-01-08T11:07:19;8.00;99.90
4699;DHT22;33708;49.466;11.176;2023-01-08T11:09:47;8.00;99.90
4699;DHT22;33708;49.466;11.176;2023-01-08T11:12:38;8.00;99.90
4699;DHT22;33708;49.466;11.176;2023-01-08T11:15:22;7.70;99.90
4699;DHT22;33708;49.466;11.176;2023-01-08T11:17:49;7.80;99.90
4699;DHT22;33708;49.466;11.176;2023-01-08T11:20:21;7.80;99.90
4699;DHT22;33708;49.466;11.176;2023-01-08T11:22:47;7.80;99.90
4699;DHT22;33708;49.466;11.176;2023-01-08T11:25:22;7.80;99.90
4699;DHT22;33708;49.466;11.176;2023-01-08T11:27:51;7.90;99.90
4699;DHT22;33708;49.466;11.176;2023-01-08T11:30:20;8.10;99.90
4699;DHT22;33708;49.466;11.176;2023-01-08T11:32:54;7.90;99.90
4699;DHT22;33708;49.466;11.176;2023-01-08T11:37:57;8.00;99.90
4699;DHT22;33708;49.466;11.176;2023-01-08T11:52:18;7.60;99.90
4699;DHT22;33708;49.466;11.176;2023-01-08T11:58:12;7.50;99.90
4699;DHT22;33708;49.466;11.176;2023-01-08T12:04:04;7.30;99.90
4699;DHT22;33708;49.466;11.176;2023-01-08T12:06:57;7.30;99.90
4699;DHT22;33708;49.466;11.176;2023-01-08T12:09:34;7.10;99.90
4699;DHT22;33708;49.466;11.176;2023-01-08T12:20:38;7.20;99.90
4699;DHT22;33708;49.466;11.176;2023-01-08T12:23:27;7.30;99.90
4699;DHT22;33708;49.466;11.176;2023-01-08T12:29:13;7.20;99.90
4699;DHT22;33708;49.466;11.176;2023-01-08T12:40:31;7.40;1.00
4699;DHT22;33708;49.466;11.176;2023-01-08T12:42:59;7.40;1.00
4699;DHT22;33708;49.466;11.176;2023-01-08T12:45:34;7.40;1.00
4699;DHT22;33708;49.466;11.176;2023-01-08T12:48:10;7.40;99.90
4699;DHT22;33708;49.466;11.176;2023-01-08T12:50:39;7.70;99.90
4699;DHT22;33708;49.466;11.176;2023-01-08T13:04:14;7.90;99.90
4699;DHT22;33708;49.466;11.176;2023-01-08T13:07:01;8.10;99.90
4699;DHT22;33708;49.466;11.176;2023-01-08T13:09:27;8.20;99.90
4699;DHT22;33708;49.466;11.176;2023-01-08T13:11:55;8.10;99.90
4699;DHT22;33708;49.466;11.176;2023-01-08T13:14:22;8.20;99.90
4699;DHT22;33708;49.466;11.176;2023-01-08T13:17:04;8.20;99.90
4699;DHT22;33708;49.466;11.176;2023-01-08T13:19:41;8.10;99.90
4699;DHT22;33708;49.466;11.176;2023-01-08T13:22:42;8.20;99.90
4699;DHT22;33708;49.466;11.176;2023-01-08T13:25:28;8.30;99.90
4699;DHT22;33708;49.466;11.176;2023-01-08T13:27:55;8.40;99.90
4699;DHT22;33708;49.466;11.176;2023-01-08T13:30:42;8.40;99.90
4699;DHT22;33708;49.466;11.176;2023-01-08T13:33:24;8.40;99.90
4699;DHT22;33708;49.466;11.176;2023-01-08T13:35:50;8.50;99.90
4699;DHT22;33708;49.466;11.176;2023-01-08T13:38:18;8.60;99.90
4699;DHT22;33708;49.466;11.176;2023-01-08T13:50:57;8.60;99.90
4699;DHT22;33708;49.466;11.176;2023-01-08T13:53:23;8.50;99.90
4699;DHT22;33708;49.466;11.176;2023-01-08T13:56:05;8.40;99.90
4699;DHT22;33708;49.466;11.176;2023-01-08T13:58:43;8.40;99.90
4699;DHT22;33708;49.466;11.176;2023-01-08T14:01:10;8.60;99.90
4699;DHT22;33708;49.466;11.176;2023-01-08T14:03:44;8.60;99.90
4699;DHT22;33708;49.466;11.176;2023-01-08T14:06:22;8.60;99.90
4699;DHT22;33708;49.466;11.176;2023-01-08T14:11:14;8.90;99.90
4699;DHT22;33708;49.466;11.176;2023-01-08T14:13:42;8.70;99.90
4699;DHT22;33708;49.466;11.176;2023-01-08T14:16:12;8.80;99.90
4699;DHT22;33708;49.466;11.176;2023-01-08T14:18:45;8.70;99.90
4699;DHT22;33708;49.466;11.176;2023-01-08T14:21:12;8.70;99.90
4699;DHT22;33708;49.466;11.176;2023-01-08T14:23:45;8.80;99.90
4699;DHT22;33708;49.466;11.176;2023-01-08T14:26:36;8.60;99.90
4699;DHT22;33708;49.466;11.176;2023-01-08T14:29:19;8.40;99.90
4699;DHT22;33708;49.466;11.176;2023-01-08T14:31:47;8.30;99.90
4699;DHT22;33708;49.466;11.176;2023-01-08T14:34:13;8.20;99.90
4699;DHT22;33708;49.466;11.176;2023-01-08T14:36:40;8.20;99.90
4699;DHT22;33708;49.466;11.176;2023-01-08T14:39:24;8.10;99.90
4699;DHT22;33708;49.466;11.176;2023-01-08T14:41:53;8.10;99.90
4699;DHT22;33708;49.466;11.176;2023-01-08T14:44:38;8.10;99.90
4699;DHT22;33708;49.466;11.176;2023-01-08T14:47:05;8.20;99.90
4699;DHT22;33708;49.466;11.176;2023-01-08T14:49:37;8.20;99.90
4699;DHT22;33708;49.466;11.176;2023-01-08T14:52:10;8.20;99.90
4699;DHT22;33708;49.466;11.176;2023-01-08T14:54:37;8.40;99.90
4699;DHT22;33708;49.466;11.176;2023-01-08T14:57:03;8.10;99.90
4699;DHT22;33708;49.466;11.176;2023-01-08T14:59:31;8.30;99.90
4699;DHT22;33708;49.466;11.176;2023-01-08T15:02:00;8.10;99.90
4699;DHT22;33708;49.466;11.176;2023-01-08T15:04:27;8.00;99.90
4699;DHT22;33708;49.466;11.176;2023-01-08T15:07:24;8.00;99.90
4699;DHT22;33708;49.466;11.176;2023-01-08T15:09:57;7.80;99.90
4699;DHT22;33708;49.466;11.176;2023-01-08T15:12:29;7.80;99.90
4699;DHT22;33708;49.466;11.176;2023-01-08T15:15:10;7.80;99.90
4699;DHT22;33708;49.466;11.176;2023-01-08T15:17:43;7.60;99.90
4699;DHT22;33708;49.466;11.176;2023-01-08T15:20:15;7.70;99.90
4699;DHT22;33708;49.466;11.176;2023-01-08T15:22:43;7.70;99.90
4699;DHT22;33708;49.466;11.176;2023-01-08T15:25:24;7.50;99.90
4699;DHT22;33708;49.466;11.176;2023-01-08T15:28:01;7.50;99.90
4699;DHT22;33708;49.466;11.176;2023-01-08T15:30:35;7.40;99.90
4699;DHT22;33708;49.466;11.176;2023-01-08T15:33:06;7.40;99.90
4699;DHT22;33708;49.466;11.176;2023-01-08T15:35:32;7.30;99.90
4699;DHT22;33708;49.466;11.176;2023-01-08T15:37:58;7.40;99.90
4699;DHT22;33708;49.466;11.176;2023-01-08T15:40:23;7.40;99.90
4699;DHT22;33708;49.466;11.176;2023-01-08T15:42:50;7.40;99.90
4699;DHT22;33708;49.466;11.176;2023-01-08T15:45:34;7.30;99.90
4699;DHT22;33708;49.466;11.176;2023-01-08T15:48:01;7.20;99.90
4699;DHT22;33708;49.466;11.176;2023-01-08T15:50:32;7.20;99.90
4699;DHT22;33708;49.466;11.176;2023-01-08T15:53:03;7.20;99.90
4699;DHT22;33708;49.466;11.176;2023-01-08T15:55:29;7.20;99.90
4699;DHT22;33708;49.466;11.176;2023-01-08T15:57:56;7.10;99.90
4699;DHT22;33708;49.466;11.176;2023-01-08T16:00:22;7.10;99.90
4699;DHT22;33708;49.466;11.176;2023-01-08T16:02:50;7.00;99.90
4699;DHT22;33708;49.466;11.176;2023-01-08T16:05:17;7.00;99.90
4699;DHT22;33708;49.466;11.176;2023-01-08T16:07:46;7.00;99.90
4699;DHT22;33708;49.466;11.176;2023-01-08T16:10:13;7.00;99.90
4699;DHT22;33708;49.466;11.176;2023-01-08T16:12:39;7.00;99.90
4699;DHT22;33708;49.466;11.176;2023-01-08T16:15:05;7.10;99.90
4699;DHT22;33708;49.466;11.176;2023-01-08T16:17:33;7.00;99.90
4699;DHT22;33708;49.466;11.176;2023-01-08T16:19:59;7.00;99.90
4699;DHT22;33708;49.466;11.176;2023-01-08T16:22:25;6.90;99.90
4699;DHT22;33708;49.466;11.176;2023-01-08T16:24:51;6.80;99.90
4699;DHT22;33708;49.466;11.176;2023-01-08T16:27:16;6.90;99.90
4699;DHT22;33708;49.466;11.176;2023-01-08T16:29:42;6.90;99.90
4699;DHT22;33708;49.466;11.176;2023-01-08T16:32:08;6.80;99.90
4699;DHT22;33708;49.466;11.176;2023-01-08T16:34:34;6.80;99.90
4699;DHT22;33708;49.466;11.176;2023-01-08T16:36:59;6.80;99.90
4699;DHT22;33708;49.466;11.176;2023-01-08T16:39:25;6.80;99.90
4699;DHT22;33708;49.466;11.176;2023-01-08T16:41:51;6.80;99.90
4699;DHT22;33708;49.466;11.176;2023-01-08T16:44:22;6.80;99.90
4699;DHT22;33708;49.466;11.176;2023-01-08T16:46:48;6.70;99.90
4699;DHT22;33708;49.466;11.176;2023-01-08T16:49:14;6.80;99.90
4699;DHT22;33708;49.466;11.176;2023-01-08T16:51:40;6.80;99.90
4699;DHT22;33708;49.466;11.176;2023-01-08T16:54:06;6.70;99.90
4699;DHT22;33708;49.466;11.176;2023-01-08T16:56:31;6.80;99.90
4699;DHT22;33708;49.466;11.176;2023-01-08T16:58:57;6.80;99.90
4699;DHT22;33708;49.466;11.176;2023-01-08T17:01:23;6.80;99.90
4699;DHT22;33708;49.466;11.176;2023-01-08T17:03:49;7.00;99.90
4699;DHT22;33708;49.466;11.176;2023-01-08T17:06:15;7.00;99.90
4699;DHT22;33708;49.466;11.176;2023-01-08T17:08:41;7.10;99.90
4699;DHT22;33708;49.466;11.176;2023-01-08T17:11:15;7.00;99.90
4699;DHT22;33708;49.466;11.176;2023-01-08T17:13:41;7.10;99.90
4699;DHT22;33708;49.466;11.176;2023-01-08T17:16:10;7.10;99.90
4699;DHT22;33708;49.466;11.176;2023-01-08T17:18:36;7.20;99.90
4699;DHT22;33708;49.466;11.176;2023-01-08T17:21:03;7.20;99.90
4699;DHT22;33708;49.466;11.176;2023-01-08T17:23:29;7.20;99.90
4699;DHT22;33708;49.466;11.176;2023-01-08T17:25:57;7.00;99.90
4699;DHT22;33708;49.466;11.176;2023-01-08T17:28:24;6.90;99.90
4699;DHT22;33708;49.466;11.176;2023-01-08T17:31:03;7.00;99.90
4699;DHT22;33708;49.466;11.176;2023-01-08T17:33:30;7.00;99.90